sensor_id;sensor_type;location;lat;lon;timestamp;temperature;humidity
39925;DHT22;25592;49.986;11.618;2023-04-24T00:01:29;14.70;98.60
39925;DHT22;25592;49.986;11.618;2023-04-24T00:04:14;14.70;98.60
39925;DHT22;25592;49.986;11.618;2023-04-24T00:07:02;14.80;98.60
39925;DHT22;25592;49.986;11.618;2023-04-24T00:09:47;14.80;98.50
39925;DHT22;25592;49.986;11.618;2023-04-24T00:12:33;14.80;98.70
39925;DHT22;25592;49.986;11.618;2023-04-24T00:15:18;14.70;98.70
39925;DHT22;25592;49.986;11.618;2023-04-24T00:18:04;14.60;98.60
39925;DHT22;25592;49.986;11.618;2023-04-24T00:20:49;14.60;98.70
39925;DHT22;25592;49.986;11.618;2023-04-24T00:23:34;14.40;99.00
39925;DHT22;25592;49.986;11.618;2023-04-24T00:26:20;14.50;99.00
39925;DHT22;25592;49.986;11.618;2023-04-24T00:29:05;14.50;99.00
39925;DHT22;25592;49.986;11.618;2023-04-24T00:31:51;14.60;98.80
39925;DHT22;25592;49.986;11.618;2023-04-24T00:34:36;14.50;98.70
39925;DHT22;25592;49.986;11.618;2023-04-24T00:37:22;14.50;98.90
39925;DHT22;25592;49.986;11.618;2023-04-24T00:40:07;14.60;98.70
39925;DHT22;25592;49.986;11.618;2023-04-24T00:42:53;14.50;98.60
39925;DHT22;25592;49.986;11.618;2023-04-24T00:45:38;14.40;98.70
39925;DHT22;25592;49.986;11.618;2023-04-24T00:48:24;14.30;98.60
39925;DHT22;25592;49.986;11.618;2023-04-24T00:51:10;14.20;98.70
39925;DHT22;25592;49.986;11.618;2023-04-24T00:53:55;14.10;99.00
39925;DHT22;25592;49.986;11.618;2023-04-24T00:56:42;14.10;98.70
39925;DHT22;25592;49.986;11.618;2023-04-24T00:59:27;14.10;99.00
39925;DHT22;25592;49.986;11.618;2023-04-24T01:02:13;14.10;98.80
39925;DHT22;25592;49.986;11.618;2023-04-24T01:04:58;14.20;99.00
39925;DHT22;25592;49.986;11.618;2023-04-24T01:07:45;14.30;98.80
39925;DHT22;25592;49.986;11.618;2023-04-24T01:10:33;14.30;98.70
39925;DHT22;25592;49.986;11.618;2023-04-24T01:13:20;14.30;98.40
39925;DHT22;25592;49.986;11.618;2023-04-24T01:16:06;14.20;98.40
39925;DHT22;25592;49.986;11.618;2023-04-24T01:18:51;13.90;99.00
39925;DHT22;25592;49.986;11.618;2023-04-24T01:21:38;14.00;99.10
39925;DHT22;25592;49.986;11.618;2023-04-24T01:24:23;14.00;98.80
39925;DHT22;25592;49.986;11.618;2023-04-24T01:27:10;14.20;98.80
39925;DHT22;25592;49.986;11.618;2023-04-24T01:29:55;14.20;98.50
39925;DHT22;25592;49.986;11.618;2023-04-24T01:32:41;14.00;98.70
39925;DHT22;25592;49.986;11.618;2023-04-24T01:35:29;14.00;98.90
39925;DHT22;25592;49.986;11.618;2023-04-24T01:38:15;13.90;98.80
39925;DHT22;25592;49.986;11.618;2023-04-24T01:41:00;13.80;99.20
39925;DHT22;25592;49.986;11.618;2023-04-24T01:43:45;13.90;99.10
39925;DHT22;25592;49.986;11.618;2023-04-24T01:46:31;14.00;99.10
39925;DHT22;25592;49.986;11.618;2023-04-24T01:49:17;14.00;99.00
39925;DHT22;25592;49.986;11.618;2023-04-24T01:52:02;13.90;98.70
39925;DHT22;25592;49.986;11.618;2023-04-24T01:54:47;13.90;98.80
39925;DHT22;25592;49.986;11.618;2023-04-24T01:57:33;14.00;98.80
39925;DHT22;25592;49.986;11.618;2023-04-24T02:00:18;14.00;98.70
39925;DHT22;25592;49.986;11.618;2023-04-24T02:03:04;14.10;98.80
39925;DHT22;25592;49.986;11.618;2023-04-24T02:05:49;14.20;98.50
39925;DHT22;25592;49.986;11.618;2023-04-24T02:08:35;14.20;98.50
39925;DHT22;25592;49.986;11.618;2023-04-24T02:11:20;14.10;98.60
39925;DHT22;25592;49.986;11.618;2023-04-24T02:14:05;14.20;98.30
39925;DHT22;25592;49.986;11.618;2023-04-24T02:16:51;14.30;98.40
39925;DHT22;25592;49.986;11.618;2023-04-24T02:19:36;14.20;98.30
39925;DHT22;25592;49.986;11.618;2023-04-24T02:22:22;14.10;98.50
39925;DHT22;25592;49.986;11.618;2023-04-24T02:25:07;14.00;98.70
39925;DHT22;25592;49.986;11.618;2023-04-24T02:27:53;13.80;99.00
39925;DHT22;25592;49.986;11.618;2023-04-24T02:30:38;13.70;99.10
39925;DHT22;25592;49.986;11.618;2023-04-24T02:33:24;13.60;99.40
39925;DHT22;25592;49.986;11.618;2023-04-24T02:36:09;13.60;99.50
39925;DHT22;25592;49.986;11.618;2023-04-24T02:38:54;13.70;99.40
39925;DHT22;25592;49.986;11.618;2023-04-24T02:41:40;13.80;99.40
39925;DHT22;25592;49.986;11.618;2023-04-24T02:44:25;13.70;99.30
39925;DHT22;25592;49.986;11.618;2023-04-24T02:47:11;13.80;99.30
39925;DHT22;25592;49.986;11.618;2023-04-24T02:49:56;13.80;99.30
39925;DHT22;25592;49.986;11.618;2023-04-24T02:52:41;13.70;99.30
39925;DHT22;25592;49.986;11.618;2023-04-24T02:55:27;13.70;99.50
39925;DHT22;25592;49.986;11.618;2023-04-24T02:58:13;13.80;99.40
39925;DHT22;25592;49.986;11.618;2023-04-24T03:00:58;13.70;99.50
39925;DHT22;25592;49.986;11.618;2023-04-24T03:03:44;13.70;99.70
39925;DHT22;25592;49.986;11.618;2023-04-24T03:06:30;13.60;99.70
39925;DHT22;25592;49.986;11.618;2023-04-24T03:09:18;13.60;99.80
39925;DHT22;25592;49.986;11.618;2023-04-24T03:12:03;13.60;99.70
39925;DHT22;25592;49.986;11.618;2023-04-24T03:14:49;13.40;99.80
39925;DHT22;25592;49.986;11.618;2023-04-24T03:17:34;13.50;99.90
39925;DHT22;25592;49.986;11.618;2023-04-24T03:20:20;13.50;99.90
39925;DHT22;25592;49.986;11.618;2023-04-24T03:23:05;13.50;99.90
39925;DHT22;25592;49.986;11.618;2023-04-24T03:25:50;13.50;99.90
39925;DHT22;25592;49.986;11.618;2023-04-24T03:28:36;13.30;99.90
39925;DHT22;25592;49.986;11.618;2023-04-24T03:31:21;13.20;99.90
39925;DHT22;25592;49.986;11.618;2023-04-24T03:34:06;13.40;99.90
39925;DHT22;25592;49.986;11.618;2023-04-24T03:36:52;13.50;99.90
39925;DHT22;25592;49.986;11.618;2023-04-24T03:39:38;13.50;99.90
39925;DHT22;25592;49.986;11.618;2023-04-24T03:42:23;13.50;99.90
39925;DHT22;25592;49.986;11.618;2023-04-24T03:45:09;13.60;99.90
39925;DHT22;25592;49.986;11.618;2023-04-24T03:47:54;13.60;99.90
39925;DHT22;25592;49.986;11.618;2023-04-24T03:50:40;13.40;99.90
39925;DHT22;25592;49.986;11.618;2023-04-24T03:53:25;13.30;99.90
39925;DHT22;25592;49.986;11.618;2023-04-24T03:56:11;13.30;99.90
39925;DHT22;25592;49.986;11.618;2023-04-24T03:58:57;13.30;99.90
39925;DHT22;25592;49.986;11.618;2023-04-24T04:01:42;13.30;99.90
39925;DHT22;25592;49.986;11.618;2023-04-24T04:04:28;13.20;99.90
39925;DHT22;25592;49.986;11.618;2023-04-24T04:07:14;13.20;99.90
39925;DHT22;25592;49.986;11.618;2023-04-24T04:09:59;13.10;99.90
39925;DHT22;25592;49.986;11.618;2023-04-24T04:12:45;13.20;99.90
39925;DHT22;25592;49.986;11.618;2023-04-24T04:15:30;13.20;99.90
39925;DHT22;25592;49.986;11.618;2023-04-24T04:18:15;13.10;99.90
39925;DHT22;25592;49.986;11.618;2023-04-24T04:21:01;13.00;99.90
39925;DHT22;25592;49.986;11.618;2023-04-24T04:23:46;13.00;99.90
39925;DHT22;25592;49.986;11.618;2023-04-24T04:26:32;12.90;99.90
39925;DHT22;25592;49.986;11.618;2023-04-24T04:29:17;12.90;99.90
39925;DHT22;25592;49.986;11.618;2023-04-24T04:32:07;12.80;99.90
39925;DHT22;25592;49.986;11.618;2023-04-24T04:34:52;12.80;99.90
39925;DHT22;25592;49.986;11.618;2023-04-24T04:37:38;12.70;99.90
39925;DHT22;25592;49.986;11.618;2023-04-24T04:40:23;12.80;99.90
39925;DHT22;25592;49.986;11.618;2023-04-24T04:43:09;12.90;99.90
39925;DHT22;25592;49.986;11.618;2023-04-24T04:45:55;12.90;99.90
39925;DHT22;25592;49.986;11.618;2023-04-24T04:48:41;12.80;99.90
39925;DHT22;25592;49.986;11.618;2023-04-24T04:51:27;12.80;99.90
39925;DHT22;25592;49.986;11.618;2023-04-24T04:54:12;12.70;99.90
39925;DHT22;25592;49.986;11.618;2023-04-24T04:56:57;12.80;99.90
39925;DHT22;25592;49.986;11.618;2023-04-24T04:59:43;12.80;99.90
39925;DHT22;25592;49.986;11.618;2023-04-24T05:02:29;12.90;99.90
39925;DHT22;25592;49.986;11.618;2023-04-24T05:05:15;12.80;99.90
39925;DHT22;25592;49.986;11.618;2023-04-24T05:08:02;12.90;99.90
39925;DHT22;25592;49.986;11.618;2023-04-24T05:10:49;13.00;99.90
39925;DHT22;25592;49.986;11.618;2023-04-24T05:13:34;13.00;99.90
39925;DHT22;25592;49.986;11.618;2023-04-24T05:16:25;13.20;99.90
39925;DHT22;25592;49.986;11.618;2023-04-24T05:19:10;13.20;99.90
39925;DHT22;25592;49.986;11.618;2023-04-24T05:21:57;13.20;99.90
39925;DHT22;25592;49.986;11.618;2023-04-24T05:24:42;13.20;99.90
39925;DHT22;25592;49.986;11.618;2023-04-24T05:27:28;13.30;99.90
39925;DHT22;25592;49.986;11.618;2023-04-24T05:30:13;13.40;99.80
39925;DHT22;25592;49.986;11.618;2023-04-24T05:32:59;13.40;99.60
39925;DHT22;25592;49.986;11.618;2023-04-24T05:35:46;13.30;99.70
39925;DHT22;25592;49.986;11.618;2023-04-24T05:38:32;13.30;99.60
39925;DHT22;25592;49.986;11.618;2023-04-24T05:41:17;13.20;99.60
39925;DHT22;25592;49.986;11.618;2023-04-24T05:44:03;13.10;99.90
39925;DHT22;25592;49.986;11.618;2023-04-24T05:46:48;13.20;99.90
39925;DHT22;25592;49.986;11.618;2023-04-24T05:49:33;13.20;99.90
39925;DHT22;25592;49.986;11.618;2023-04-24T05:52:19;13.20;99.90
39925;DHT22;25592;49.986;11.618;2023-04-24T05:55:05;13.40;99.80
39925;DHT22;25592;49.986;11.618;2023-04-24T05:57:50;13.50;99.50
39925;DHT22;25592;49.986;11.618;2023-04-24T06:00:36;13.40;99.80
39925;DHT22;25592;49.986;11.618;2023-04-24T06:03:21;13.50;99.70
39925;DHT22;25592;49.986;11.618;2023-04-24T06:06:08;13.60;99.60
39925;DHT22;25592;49.986;11.618;2023-04-24T06:08:53;13.70;99.60
39925;DHT22;25592;49.986;11.618;2023-04-24T06:11:38;13.70;99.40
39925;DHT22;25592;49.986;11.618;2023-04-24T06:14:23;13.70;99.30
39925;DHT22;25592;49.986;11.618;2023-04-24T06:17:09;13.60;99.40
39925;DHT22;25592;49.986;11.618;2023-04-24T06:19:54;13.80;99.50
39925;DHT22;25592;49.986;11.618;2023-04-24T06:22:40;13.70;99.60
39925;DHT22;25592;49.986;11.618;2023-04-24T06:25:26;13.70;99.60
39925;DHT22;25592;49.986;11.618;2023-04-24T06:28:12;13.90;99.60
39925;DHT22;25592;49.986;11.618;2023-04-24T06:30:57;13.80;99.40
39925;DHT22;25592;49.986;11.618;2023-04-24T06:33:43;13.80;99.50
39925;DHT22;25592;49.986;11.618;2023-04-24T06:36:28;13.60;99.60
39925;DHT22;25592;49.986;11.618;2023-04-24T06:39:13;13.80;99.80
39925;DHT22;25592;49.986;11.618;2023-04-24T06:41:59;13.70;99.90
39925;DHT22;25592;49.986;11.618;2023-04-24T06:44:45;13.70;99.90
39925;DHT22;25592;49.986;11.618;2023-04-24T06:47:31;13.80;99.80
39925;DHT22;25592;49.986;11.618;2023-04-24T06:50:17;13.90;99.80
39925;DHT22;25592;49.986;11.618;2023-04-24T06:53:02;13.80;99.60
39925;DHT22;25592;49.986;11.618;2023-04-24T06:55:47;13.80;99.50
39925;DHT22;25592;49.986;11.618;2023-04-24T06:58:33;13.70;98.50
39925;DHT22;25592;49.986;11.618;2023-04-24T07:01:19;13.70;98.90
39925;DHT22;25592;49.986;11.618;2023-04-24T07:04:04;13.70;99.00
39925;DHT22;25592;49.986;11.618;2023-04-24T07:06:50;13.70;98.90
39925;DHT22;25592;49.986;11.618;2023-04-24T07:09:36;13.50;99.10
39925;DHT22;25592;49.986;11.618;2023-04-24T07:12:24;13.40;99.50
39925;DHT22;25592;49.986;11.618;2023-04-24T07:15:09;13.20;99.90
39925;DHT22;25592;49.986;11.618;2023-04-24T07:17:55;13.10;99.90
39925;DHT22;25592;49.986;11.618;2023-04-24T07:20:41;13.00;99.90
39925;DHT22;25592;49.986;11.618;2023-04-24T07:23:26;12.90;99.90
39925;DHT22;25592;49.986;11.618;2023-04-24T07:26:12;12.90;99.90
39925;DHT22;25592;49.986;11.618;2023-04-24T07:29:00;12.70;99.90
39925;DHT22;25592;49.986;11.618;2023-04-24T07:31:45;12.90;99.90
39925;DHT22;25592;49.986;11.618;2023-04-24T07:34:30;12.90;99.90
39925;DHT22;25592;49.986;11.618;2023-04-24T07:37:16;13.00;99.90
39925;DHT22;25592;49.986;11.618;2023-04-24T07:40:01;13.20;99.90
39925;DHT22;25592;49.986;11.618;2023-04-24T07:42:47;13.30;99.90
39925;DHT22;25592;49.986;11.618;2023-04-24T07:45:33;13.30;99.10
39925;DHT22;25592;49.986;11.618;2023-04-24T07:48:22;13.20;98.40
39925;DHT22;25592;49.986;11.618;2023-04-24T07:51:07;13.20;98.90
39925;DHT22;25592;49.986;11.618;2023-04-24T07:53:55;13.30;99.10
39925;DHT22;25592;49.986;11.618;2023-04-24T07:56:43;13.40;98.60
39925;DHT22;25592;49.986;11.618;2023-04-24T07:59:28;13.60;98.90
39925;DHT22;25592;49.986;11.618;2023-04-24T08:02:14;13.70;98.40
39925;DHT22;25592;49.986;11.618;2023-04-24T08:04:59;13.50;98.20
39925;DHT22;25592;49.986;11.618;2023-04-24T08:07:46;13.40;97.70
39925;DHT22;25592;49.986;11.618;2023-04-24T08:10:33;13.10;97.50
39925;DHT22;25592;49.986;11.618;2023-04-24T08:13:19;13.00;97.60
39925;DHT22;25592;49.986;11.618;2023-04-24T08:16:04;13.00;97.60
39925;DHT22;25592;49.986;11.618;2023-04-24T08:18:50;13.10;97.60
39925;DHT22;25592;49.986;11.618;2023-04-24T08:21:35;13.10;97.00
39925;DHT22;25592;49.986;11.618;2023-04-24T08:24:22;13.00;97.00
39925;DHT22;25592;49.986;11.618;2023-04-24T08:27:08;13.00;97.30
39925;DHT22;25592;49.986;11.618;2023-04-24T08:29:54;13.10;97.30
39925;DHT22;25592;49.986;11.618;2023-04-24T08:32:39;13.40;96.70
39925;DHT22;25592;49.986;11.618;2023-04-24T08:35:25;13.40;95.70
39925;DHT22;25592;49.986;11.618;2023-04-24T08:38:10;13.30;96.00
39925;DHT22;25592;49.986;11.618;2023-04-24T08:40:57;13.30;95.80
39925;DHT22;25592;49.986;11.618;2023-04-24T08:43:43;13.40;95.80
39925;DHT22;25592;49.986;11.618;2023-04-24T08:46:31;13.40;95.70
39925;DHT22;25592;49.986;11.618;2023-04-24T08:49:17;13.40;95.80
39925;DHT22;25592;49.986;11.618;2023-04-24T08:52:03;13.60;95.60
39925;DHT22;25592;49.986;11.618;2023-04-24T08:54:49;13.70;95.40
39925;DHT22;25592;49.986;11.618;2023-04-24T08:57:35;13.70;94.80
39925;DHT22;25592;49.986;11.618;2023-04-24T09:00:22;13.50;94.10
39925;DHT22;25592;49.986;11.618;2023-04-24T09:03:08;13.50;94.40
39925;DHT22;25592;49.986;11.618;2023-04-24T09:05:55;13.50;94.90
39925;DHT22;25592;49.986;11.618;2023-04-24T09:08:42;13.70;94.70
39925;DHT22;25592;49.986;11.618;2023-04-24T09:11:33;13.80;94.70
39925;DHT22;25592;49.986;11.618;2023-04-24T09:14:18;13.90;94.30
39925;DHT22;25592;49.986;11.618;2023-04-24T09:17:06;14.10;94.50
39925;DHT22;25592;49.986;11.618;2023-04-24T09:19:51;13.90;94.30
39925;DHT22;25592;49.986;11.618;2023-04-24T09:22:37;13.80;94.30
39925;DHT22;25592;49.986;11.618;2023-04-24T09:25:30;13.60;94.00
39925;DHT22;25592;49.986;11.618;2023-04-24T09:28:16;13.50;94.00
39925;DHT22;25592;49.986;11.618;2023-04-24T09:31:03;13.40;94.20
39925;DHT22;25592;49.986;11.618;2023-04-24T09:34:00;13.60;94.20
39925;DHT22;25592;49.986;11.618;2023-04-24T09:36:47;13.70;94.10
39925;DHT22;25592;49.986;11.618;2023-04-24T09:39:32;13.80;94.40
39925;DHT22;25592;49.986;11.618;2023-04-24T09:42:18;13.80;93.80
39925;DHT22;25592;49.986;11.618;2023-04-24T09:45:09;13.80;94.30
39925;DHT22;25592;49.986;11.618;2023-04-24T09:48:00;13.70;92.20
39925;DHT22;25592;49.986;11.618;2023-04-24T09:50:46;13.60;91.90
39925;DHT22;25592;49.986;11.618;2023-04-24T09:53:32;13.50;92.00
39925;DHT22;25592;49.986;11.618;2023-04-24T09:56:17;13.60;92.20
39925;DHT22;25592;49.986;11.618;2023-04-24T09:59:06;13.60;91.90
39925;DHT22;25592;49.986;11.618;2023-04-24T10:01:51;13.70;91.70
39925;DHT22;25592;49.986;11.618;2023-04-24T10:04:37;13.80;90.90
39925;DHT22;25592;49.986;11.618;2023-04-24T10:07:26;13.80;90.50
39925;DHT22;25592;49.986;11.618;2023-04-24T10:10:11;13.70;91.20
39925;DHT22;25592;49.986;11.618;2023-04-24T10:12:57;13.60;91.40
39925;DHT22;25592;49.986;11.618;2023-04-24T10:15:43;13.70;90.70
39925;DHT22;25592;49.986;11.618;2023-04-24T10:18:29;13.70;90.90
39925;DHT22;25592;49.986;11.618;2023-04-24T10:21:16;13.90;91.00
39925;DHT22;25592;49.986;11.618;2023-04-24T10:24:01;13.90;91.40
39925;DHT22;25592;49.986;11.618;2023-04-24T10:26:50;14.30;91.10
39925;DHT22;25592;49.986;11.618;2023-04-24T10:29:36;14.40;91.00
39925;DHT22;25592;49.986;11.618;2023-04-24T10:32:22;14.40;90.40
39925;DHT22;25592;49.986;11.618;2023-04-24T10:35:12;14.10;90.30
39925;DHT22;25592;49.986;11.618;2023-04-24T10:38:01;13.80;90.20
39925;DHT22;25592;49.986;11.618;2023-04-24T10:40:47;13.70;90.60
39925;DHT22;25592;49.986;11.618;2023-04-24T10:43:33;13.70;90.30
39925;DHT22;25592;49.986;11.618;2023-04-24T10:46:22;13.40;89.50
39925;DHT22;25592;49.986;11.618;2023-04-24T10:49:08;13.20;90.40
39925;DHT22;25592;49.986;11.618;2023-04-24T10:52:01;13.30;90.30
39925;DHT22;25592;49.986;11.618;2023-04-24T10:54:47;13.20;90.90
39925;DHT22;25592;49.986;11.618;2023-04-24T10:57:32;13.30;90.50
39925;DHT22;25592;49.986;11.618;2023-04-24T11:00:21;13.30;90.90
39925;DHT22;25592;49.986;11.618;2023-04-24T11:03:28;13.40;90.80
39925;DHT22;25592;49.986;11.618;2023-04-24T11:06:14;13.70;90.70
39925;DHT22;25592;49.986;11.618;2023-04-24T11:09:10;13.80;90.10
39925;DHT22;25592;49.986;11.618;2023-04-24T11:12:09;13.90;90.60
39925;DHT22;25592;49.986;11.618;2023-04-24T11:17:42;13.60;90.80
39925;DHT22;25592;49.986;11.618;2023-04-24T11:20:27;13.60;91.00
39925;DHT22;25592;49.986;11.618;2023-04-24T11:23:13;13.50;91.30
39925;DHT22;25592;49.986;11.618;2023-04-24T11:26:22;13.50;91.70
39925;DHT22;25592;49.986;11.618;2023-04-24T11:29:15;13.30;92.30
39925;DHT22;25592;49.986;11.618;2023-04-24T11:32:15;13.30;92.40
39925;DHT22;25592;49.986;11.618;2023-04-24T11:35:04;13.70;91.30
39925;DHT22;25592;49.986;11.618;2023-04-24T11:37:54;14.20;91.60
39925;DHT22;25592;49.986;11.618;2023-04-24T11:41:00;14.60;90.70
39925;DHT22;25592;49.986;11.618;2023-04-24T11:43:48;14.50;87.80
39925;DHT22;25592;49.986;11.618;2023-04-24T11:46:34;13.90;86.90
39925;DHT22;25592;49.986;11.618;2023-04-24T11:49:20;13.90;88.00
39925;DHT22;25592;49.986;11.618;2023-04-24T11:52:06;14.20;88.70
39925;DHT22;25592;49.986;11.618;2023-04-24T11:54:51;14.70;87.80
39925;DHT22;25592;49.986;11.618;2023-04-24T11:57:37;14.90;86.10
39925;DHT22;25592;49.986;11.618;2023-04-24T12:00:24;15.10;86.20
39925;DHT22;25592;49.986;11.618;2023-04-24T12:03:11;15.50;83.00
39925;DHT22;25592;49.986;11.618;2023-04-24T12:06:07;15.50;84.00
39925;DHT22;25592;49.986;11.618;2023-04-24T12:08:53;15.50;83.60
39925;DHT22;25592;49.986;11.618;2023-04-24T12:11:52;15.40;83.30
39925;DHT22;25592;49.986;11.618;2023-04-24T12:14:48;15.10;83.90
39925;DHT22;25592;49.986;11.618;2023-04-24T12:17:35;14.90;84.70
39925;DHT22;25592;49.986;11.618;2023-04-24T12:20:30;14.80;84.50
39925;DHT22;25592;49.986;11.618;2023-04-24T12:23:16;14.60;84.70
39925;DHT22;25592;49.986;11.618;2023-04-24T12:26:05;14.60;85.10
39925;DHT22;25592;49.986;11.618;2023-04-24T12:28:51;14.40;84.70
39925;DHT22;25592;49.986;11.618;2023-04-24T12:31:36;14.40;84.50
39925;DHT22;25592;49.986;11.618;2023-04-24T12:34:23;14.20;85.70
39925;DHT22;25592;49.986;11.618;2023-04-24T12:37:12;14.30;86.20
39925;DHT22;25592;49.986;11.618;2023-04-24T12:40:03;14.30;86.50
39925;DHT22;25592;49.986;11.618;2023-04-24T12:42:50;14.30;86.60
39925;DHT22;25592;49.986;11.618;2023-04-24T12:45:35;14.40;87.10
39925;DHT22;25592;49.986;11.618;2023-04-24T12:48:21;14.30;86.40
39925;DHT22;25592;49.986;11.618;2023-04-24T12:51:07;14.50;86.70
39925;DHT22;25592;49.986;11.618;2023-04-24T12:53:53;15.10;86.50
39925;DHT22;25592;49.986;11.618;2023-04-24T12:56:40;15.40;85.40
39925;DHT22;25592;49.986;11.618;2023-04-24T12:59:26;15.20;84.70
39925;DHT22;25592;49.986;11.618;2023-04-24T13:02:12;15.00;85.60
39925;DHT22;25592;49.986;11.618;2023-04-24T13:04:58;14.80;85.00
39925;DHT22;25592;49.986;11.618;2023-04-24T13:07:44;14.60;85.40
39925;DHT22;25592;49.986;11.618;2023-04-24T13:10:29;14.50;85.60
39925;DHT22;25592;49.986;11.618;2023-04-24T13:13:15;14.40;86.50
39925;DHT22;25592;49.986;11.618;2023-04-24T13:16:01;14.40;85.30
39925;DHT22;25592;49.986;11.618;2023-04-24T13:18:46;14.10;84.40
39925;DHT22;25592;49.986;11.618;2023-04-24T13:21:31;14.10;83.30
39925;DHT22;25592;49.986;11.618;2023-04-24T13:24:17;14.20;83.70
39925;DHT22;25592;49.986;11.618;2023-04-24T13:27:03;14.60;84.90
39925;DHT22;25592;49.986;11.618;2023-04-24T13:29:49;14.70;82.60
39925;DHT22;25592;49.986;11.618;2023-04-24T13:32:35;15.10;83.20
39925;DHT22;25592;49.986;11.618;2023-04-24T13:35:21;15.10;83.10
39925;DHT22;25592;49.986;11.618;2023-04-24T13:38:06;15.20;83.90
39925;DHT22;25592;49.986;11.618;2023-04-24T13:40:54;15.40;83.90
39925;DHT22;25592;49.986;11.618;2023-04-24T13:43:40;15.10;84.00
39925;DHT22;25592;49.986;11.618;2023-04-24T13:46:29;14.80;85.50
39925;DHT22;25592;49.986;11.618;2023-04-24T13:49:15;15.00;85.90
39925;DHT22;25592;49.986;11.618;2023-04-24T13:52:01;14.70;84.90
39925;DHT22;25592;49.986;11.618;2023-04-24T13:54:46;14.50;85.00
39925;DHT22;25592;49.986;11.618;2023-04-24T13:57:32;14.50;84.70
39925;DHT22;25592;49.986;11.618;2023-04-24T14:00:17;14.60;86.10
39925;DHT22;25592;49.986;11.618;2023-04-24T14:03:03;14.80;84.90
39925;DHT22;25592;49.986;11.618;2023-04-24T14:05:49;14.90;84.60
39925;DHT22;25592;49.986;11.618;2023-04-24T14:08:35;14.70;84.80
39925;DHT22;25592;49.986;11.618;2023-04-24T14:11:20;14.60;84.50
39925;DHT22;25592;49.986;11.618;2023-04-24T14:14:06;14.50;85.00
39925;DHT22;25592;49.986;11.618;2023-04-24T14:16:51;14.50;84.90
39925;DHT22;25592;49.986;11.618;2023-04-24T14:19:37;14.50;85.30
39925;DHT22;25592;49.986;11.618;2023-04-24T14:22:22;14.20;85.10
39925;DHT22;25592;49.986;11.618;2023-04-24T14:25:08;14.10;85.50
39925;DHT22;25592;49.986;11.618;2023-04-24T14:27:54;14.10;86.10
39925;DHT22;25592;49.986;11.618;2023-04-24T14:30:39;14.30;86.30
39925;DHT22;25592;49.986;11.618;2023-04-24T14:33:25;14.30;85.60
39925;DHT22;25592;49.986;11.618;2023-04-24T14:36:11;14.20;86.30
39925;DHT22;25592;49.986;11.618;2023-04-24T14:38:56;14.30;86.70
39925;DHT22;25592;49.986;11.618;2023-04-24T14:41:42;14.50;86.90
39925;DHT22;25592;49.986;11.618;2023-04-24T14:44:27;14.40;86.70
39925;DHT22;25592;49.986;11.618;2023-04-24T14:47:15;14.30;85.90
39925;DHT22;25592;49.986;11.618;2023-04-24T14:50:02;14.30;89.10
39925;DHT22;25592;49.986;11.618;2023-04-24T14:52:48;14.40;87.70
39925;DHT22;25592;49.986;11.618;2023-04-24T14:55:33;14.30;86.00
39925;DHT22;25592;49.986;11.618;2023-04-24T14:58:21;14.10;86.50
39925;DHT22;25592;49.986;11.618;2023-04-24T15:01:07;13.90;86.40
39925;DHT22;25592;49.986;11.618;2023-04-24T15:03:52;13.80;87.20
39925;DHT22;25592;49.986;11.618;2023-04-24T15:06:38;13.80;88.00
39925;DHT22;25592;49.986;11.618;2023-04-24T15:09:24;13.50;90.40
39925;DHT22;25592;49.986;11.618;2023-04-24T15:12:10;13.30;93.30
39925;DHT22;25592;49.986;11.618;2023-04-24T15:14:58;13.10;93.50
39925;DHT22;25592;49.986;11.618;2023-04-24T15:17:43;12.80;94.40
39925;DHT22;25592;49.986;11.618;2023-04-24T15:20:29;12.40;95.50
39925;DHT22;25592;49.986;11.618;2023-04-24T15:23:15;12.40;95.60
39925;DHT22;25592;49.986;11.618;2023-04-24T15:26:00;12.40;95.80
39925;DHT22;25592;49.986;11.618;2023-04-24T15:28:46;12.50;95.90
39925;DHT22;25592;49.986;11.618;2023-04-24T15:31:34;12.50;96.50
39925;DHT22;25592;49.986;11.618;2023-04-24T15:34:21;12.60;95.90
39925;DHT22;25592;49.986;11.618;2023-04-24T15:37:06;12.70;95.50
39925;DHT22;25592;49.986;11.618;2023-04-24T15:39:52;13.00;96.20
39925;DHT22;25592;49.986;11.618;2023-04-24T15:42:37;13.20;96.40
39925;DHT22;25592;49.986;11.618;2023-04-24T15:45:23;13.30;95.40
39925;DHT22;25592;49.986;11.618;2023-04-24T15:48:08;13.50;94.50
39925;DHT22;25592;49.986;11.618;2023-04-24T15:50:54;13.60;95.00
39925;DHT22;25592;49.986;11.618;2023-04-24T15:53:39;13.60;95.00
39925;DHT22;25592;49.986;11.618;2023-04-24T15:56:25;14.00;94.30
39925;DHT22;25592;49.986;11.618;2023-04-24T15:59:12;14.30;94.70
39925;DHT22;25592;49.986;11.618;2023-04-24T16:01:57;14.50;94.20
39925;DHT22;25592;49.986;11.618;2023-04-24T16:04:44;14.50;94.20
39925;DHT22;25592;49.986;11.618;2023-04-24T16:07:31;14.30;94.00
39925;DHT22;25592;49.986;11.618;2023-04-24T16:10:16;14.40;93.90
39925;DHT22;25592;49.986;11.618;2023-04-24T16:13:01;14.40;93.90
39925;DHT22;25592;49.986;11.618;2023-04-24T16:15:49;14.20;93.40
39925;DHT22;25592;49.986;11.618;2023-04-24T16:18:35;13.80;92.60
39925;DHT22;25592;49.986;11.618;2023-04-24T16:21:20;13.40;93.10
39925;DHT22;25592;49.986;11.618;2023-04-24T16:24:06;13.20;93.40
39925;DHT22;25592;49.986;11.618;2023-04-24T16:26:52;13.10;94.00
39925;DHT22;25592;49.986;11.618;2023-04-24T16:29:37;13.00;94.50
39925;DHT22;25592;49.986;11.618;2023-04-24T16:32:22;12.90;96.00
39925;DHT22;25592;49.986;11.618;2023-04-24T16:35:08;12.80;96.40
39925;DHT22;25592;49.986;11.618;2023-04-24T16:37:53;12.70;95.80
39925;DHT22;25592;49.986;11.618;2023-04-24T16:40:38;12.90;96.40
39925;DHT22;25592;49.986;11.618;2023-04-24T16:43:26;12.90;95.80
39925;DHT22;25592;49.986;11.618;2023-04-24T16:46:11;13.00;96.80
39925;DHT22;25592;49.986;11.618;2023-04-24T16:48:57;13.30;95.90
39925;DHT22;25592;49.986;11.618;2023-04-24T16:51:42;13.40;95.80
39925;DHT22;25592;49.986;11.618;2023-04-24T16:54:28;13.60;95.40
39925;DHT22;25592;49.986;11.618;2023-04-24T16:57:19;13.40;94.30
39925;DHT22;25592;49.986;11.618;2023-04-24T17:00:05;13.20;94.60
39925;DHT22;25592;49.986;11.618;2023-04-24T17:02:50;12.90;95.00
39925;DHT22;25592;49.986;11.618;2023-04-24T17:05:36;12.80;95.20
39925;DHT22;25592;49.986;11.618;2023-04-24T17:08:21;12.90;94.70
39925;DHT22;25592;49.986;11.618;2023-04-24T17:11:08;12.70;94.50
39925;DHT22;25592;49.986;11.618;2023-04-24T17:13:53;12.70;94.60
39925;DHT22;25592;49.986;11.618;2023-04-24T17:16:38;12.60;94.20